sensor_id;sensor_type;location;lat;lon;timestamp;pressure;altitude;pressure_sealevel;temperature
73685;BMP280;61985;51.070;14.064;2023-04-15T00:02:20;97462.97;;;6.38
73685;BMP280;61985;51.070;14.064;2023-04-15T00:04:46;97462.59;;;6.36
73685;BMP280;61985;51.070;14.064;2023-04-15T00:07:11;97467.97;;;6.36
73685;BMP280;61985;51.070;14.064;2023-04-15T00:09:37;97456.94;;;6.34
73685;BMP280;61985;51.070;14.064;2023-04-15T00:12:03;97465.69;;;6.34
73685;BMP280;61985;51.070;14.064;2023-04-15T00:14:28;97469.16;;;6.35
73685;BMP280;61985;51.070;14.064;2023-04-15T00:16:54;97458.78;;;6.37
73685;BMP280;61985;51.070;14.064;2023-04-15T00:19:21;97459.19;;;6.35
73685;BMP280;61985;51.070;14.064;2023-04-15T00:21:47;97453.84;;;6.35
73685;BMP280;61985;51.070;14.064;2023-04-15T00:24:12;97454.50;;;6.39
73685;BMP280;61985;51.070;14.064;2023-04-15T00:26:38;97457.59;;;6.38
73685;BMP280;61985;51.070;14.064;2023-04-15T00:29:03;97450.00;;;6.36
73685;BMP280;61985;51.070;14.064;2023-04-15T00:31:30;97451.16;;;6.35
73685;BMP280;61985;51.070;14.064;2023-04-15T00:33:55;97433.94;;;6.36
73685;BMP280;61985;51.070;14.064;2023-04-15T00:36:21;97428.66;;;6.33
73685;BMP280;61985;51.070;14.064;2023-04-15T00:38:47;97426.97;;;6.39
73685;BMP280;61985;51.070;14.064;2023-04-15T00:41:13;97429.44;;;6.33
73685;BMP280;61985;51.070;14.064;2023-04-15T00:43:38;97429.09;;;6.31
73685;BMP280;61985;51.070;14.064;2023-04-15T00:46:04;97429.34;;;6.37
73685;BMP280;61985;51.070;14.064;2023-04-15T00:48:30;97427.72;;;6.39
73685;BMP280;61985;51.070;14.064;2023-04-15T00:50:56;97425.81;;;6.40
73685;BMP280;61985;51.070;14.064;2023-04-15T00:53:22;97413.59;;;6.39
73685;BMP280;61985;51.070;14.064;2023-04-15T00:55:47;97416.06;;;6.33
73685;BMP280;61985;51.070;14.064;2023-04-15T00:58:13;97419.47;;;6.34
73685;BMP280;61985;51.070;14.064;2023-04-15T01:00:39;97414.13;;;6.34
73685;BMP280;61985;51.070;14.064;2023-04-15T01:03:05;97416.81;;;6.34
73685;BMP280;61985;51.070;14.064;2023-04-15T01:05:31;97415.63;;;6.35
73685;BMP280;61985;51.070;14.064;2023-04-15T01:07:56;97413.59;;;6.39
73685;BMP280;61985;51.070;14.064;2023-04-15T01:10:22;97416.47;;;6.32
73685;BMP280;61985;51.070;14.064;2023-04-15T01:12:47;97416.06;;;6.33
73685;BMP280;61985;51.070;14.064;2023-04-15T01:15:12;97421.41;;;6.33
73685;BMP280;61985;51.070;14.064;2023-04-15T01:17:38;97415.22;;;6.36
73685;BMP280;61985;51.070;14.064;2023-04-15T01:20:04;97422.47;;;6.36
73685;BMP280;61985;51.070;14.064;2023-04-15T01:22:32;97414.81;;;6.38
73685;BMP280;61985;51.070;14.064;2023-04-15T01:25:12;97416.25;;;6.39
73685;BMP280;61985;51.070;14.064;2023-04-15T01:27:40;97417.69;;;6.43
73685;BMP280;61985;51.070;14.064;2023-04-15T01:30:07;97418.63;;;6.37
73685;BMP280;61985;51.070;14.064;2023-04-15T01:32:33;97406.00;;;6.37
73685;BMP280;61985;51.070;14.064;2023-04-15T01:34:58;97411.44;;;6.34
73685;BMP280;61985;51.070;14.064;2023-04-15T01:37:24;97407.63;;;6.35
73685;BMP280;61985;51.070;14.064;2023-04-15T01:39:50;97398.91;;;6.31
73685;BMP280;61985;51.070;14.064;2023-04-15T01:42:15;97397.41;;;6.30
73685;BMP280;61985;51.070;14.064;2023-04-15T01:44:41;97398.59;;;6.29
73685;BMP280;61985;51.070;14.064;2023-04-15T01:47:06;97391.41;;;6.25
73685;BMP280;61985;51.070;14.064;2023-04-15T01:49:32;97392.91;;;6.26
73685;BMP280;61985;51.070;14.064;2023-04-15T01:51:58;97391.41;;;6.25
73685;BMP280;61985;51.070;14.064;2023-04-15T01:54:23;97384.56;;;6.24
73685;BMP280;61985;51.070;14.064;2023-04-15T01:56:48;97385.00;;;6.23
73685;BMP280;61985;51.070;14.064;2023-04-15T01:59:13;97369.03;;;6.19
73685;BMP280;61985;51.070;14.064;2023-04-15T02:01:39;97371.34;;;6.17
73685;BMP280;61985;51.070;14.064;2023-04-15T02:04:05;97369.03;;;6.19
73685;BMP280;61985;51.070;14.064;2023-04-15T02:06:30;97380.06;;;6.21
73685;BMP280;61985;51.070;14.064;2023-04-15T02:08:55;97365.53;;;6.22
73685;BMP280;61985;51.070;14.064;2023-04-15T02:11:21;97374.72;;;6.21
73685;BMP280;61985;51.070;14.064;2023-04-15T02:13:47;97369.38;;;6.21
73685;BMP280;61985;51.070;14.064;2023-04-15T02:16:16;97378.56;;;6.20
73685;BMP280;61985;51.070;14.064;2023-04-15T02:18:45;97373.19;;;6.20
73685;BMP280;61985;51.070;14.064;2023-04-15T02:21:11;97372.56;;;6.16
73685;BMP280;61985;51.070;14.064;2023-04-15T02:23:36;97367.19;;;6.16
73685;BMP280;61985;51.070;14.064;2023-04-15T02:26:02;97379.06;;;6.15
73685;BMP280;61985;51.070;14.064;2023-04-15T02:28:27;97368.69;;;6.17
73685;BMP280;61985;51.070;14.064;2023-04-15T02:30:52;97371.28;;;6.21
73685;BMP280;61985;51.070;14.064;2023-04-15T02:33:21;97379.31;;;6.21
73685;BMP280;61985;51.070;14.064;2023-04-15T02:35:46;97378.47;;;6.24
73685;BMP280;61985;51.070;14.064;2023-04-15T02:38:11;97367.44;;;6.22
73685;BMP280;61985;51.070;14.064;2023-04-15T02:40:38;97364.34;;;6.23
73685;BMP280;61985;51.070;14.064;2023-04-15T02:43:03;97357.50;;;6.22
73685;BMP280;61985;51.070;14.064;2023-04-15T02:45:31;97359.75;;;6.24
73685;BMP280;61985;51.070;14.064;2023-04-15T02:47:56;97365.84;;;6.24
73685;BMP280;61985;51.070;14.064;2023-04-15T02:50:22;97367.00;;;6.23
73685;BMP280;61985;51.070;14.064;2023-04-15T02:52:48;97378.56;;;6.20
73685;BMP280;61985;51.070;14.064;2023-04-15T02:55:14;97371.19;;;6.24
73685;BMP280;61985;51.070;14.064;2023-04-15T02:57:39;97368.94;;;6.23
73685;BMP280;61985;51.070;14.064;2023-04-15T03:00:05;97364.66;;;6.25
73685;BMP280;61985;51.070;14.064;2023-04-15T03:02:37;97355.88;;;6.25
73685;BMP280;61985;51.070;14.064;2023-04-15T03:05:03;97351.28;;;6.25
73685;BMP280;61985;51.070;14.064;2023-04-15T03:07:30;97346.38;;;6.24
73685;BMP280;61985;51.070;14.064;2023-04-15T03:09:55;97342.84;;;6.27
73685;BMP280;61985;51.070;14.064;2023-04-15T03:12:21;97342.84;;;6.27
73685;BMP280;61985;51.070;14.064;2023-04-15T03:14:46;97343.72;;;6.24
73685;BMP280;61985;51.070;14.064;2023-04-15T03:17:11;97344.00;;;6.26
73685;BMP280;61985;51.070;14.064;2023-04-15T03:19:37;97347.00;;;6.28
73685;BMP280;61985;51.070;14.064;2023-04-15T03:22:02;97344.75;;;6.26
73685;BMP280;61985;51.070;14.064;2023-04-15T03:24:27;97349.59;;;6.32
73685;BMP280;61985;51.070;14.064;2023-04-15T03:26:54;97348.63;;;6.25
73685;BMP280;61985;51.070;14.064;2023-04-15T03:29:20;97350.50;;;6.25
73685;BMP280;61985;51.070;14.064;2023-04-15T03:31:45;97343.59;;;6.28
73685;BMP280;61985;51.070;14.064;2023-04-15T03:34:11;97344.75;;;6.26
73685;BMP280;61985;51.070;14.064;2023-04-15T03:36:36;97345.41;;;6.31
73685;BMP280;61985;51.070;14.064;2023-04-15T03:39:01;97344.25;;;6.32
73685;BMP280;61985;51.070;14.064;2023-04-15T03:41:28;97332.47;;;6.29
73685;BMP280;61985;51.070;14.064;2023-04-15T03:43:53;97336.66;;;6.30
73685;BMP280;61985;51.070;14.064;2023-04-15T03:46:19;97329.69;;;6.33
73685;BMP280;61985;51.070;14.064;2023-04-15T03:48:44;97330.22;;;6.28
73685;BMP280;61985;51.070;14.064;2023-04-15T03:51:09;97327.13;;;6.29
73685;BMP280;61985;51.070;14.064;2023-04-15T03:53:35;97330.78;;;6.35
73685;BMP280;61985;51.070;14.064;2023-04-15T03:56:01;97328.63;;;6.30
73685;BMP280;61985;51.070;14.064;2023-04-15T03:58:26;97336.22;;;6.32
73685;BMP280;61985;51.070;14.064;2023-04-15T04:00:51;97327.97;;;6.39
73685;BMP280;61985;51.070;14.064;2023-04-15T04:03:17;97327.00;;;6.33
73685;BMP280;61985;51.070;14.064;2023-04-15T04:05:42;97333.06;;;6.50
73685;BMP280;61985;51.070;14.064;2023-04-15T04:08:08;97331.31;;;6.43
73685;BMP280;61985;51.070;14.064;2023-04-15T04:10:34;97333.88;;;6.34
73685;BMP280;61985;51.070;14.064;2023-04-15T04:13:00;97343.47;;;6.31
73685;BMP280;61985;51.070;14.064;2023-04-15T04:15:26;97341.91;;;6.34
73685;BMP280;61985;51.070;14.064;2023-04-15T04:17:51;97348.41;;;6.33
73685;BMP280;61985;51.070;14.064;2023-04-15T04:20:16;97346.56;;;6.30
73685;BMP280;61985;51.070;14.064;2023-04-15T04:22:42;97353.44;;;6.31
73685;BMP280;61985;51.070;14.064;2023-04-15T04:25:08;97353.88;;;6.29
73685;BMP280;61985;51.070;14.064;2023-04-15T04:27:34;97353.13;;;6.29
73685;BMP280;61985;51.070;14.064;2023-04-15T04:30:00;97360.31;;;6.32
73685;BMP280;61985;51.070;14.064;2023-04-15T04:32:25;97343.59;;;6.28
73685;BMP280;61985;51.070;14.064;2023-04-15T04:34:51;97359.97;;;6.30
73685;BMP280;61985;51.070;14.064;2023-04-15T04:37:16;97358.47;;;6.29
73685;BMP280;61985;51.070;14.064;2023-04-15T04:39:42;97359.63;;;6.28
73685;BMP280;61985;51.070;14.064;2023-04-15T04:42:07;97362.97;;;6.32
73685;BMP280;61985;51.070;14.064;2023-04-15T04:44:32;97365.66;;;6.32
73685;BMP280;61985;51.070;14.064;2023-04-15T04:46:58;97377.41;;;6.34
73685;BMP280;61985;51.070;14.064;2023-04-15T04:49:23;97380.09;;;6.34
73685;BMP280;61985;51.070;14.064;2023-04-15T04:51:48;97365.88;;;6.37
73685;BMP280;61985;51.070;14.064;2023-04-15T04:54:13;97375.09;;;6.36
73685;BMP280;61985;51.070;14.064;2023-04-15T04:56:39;97374.31;;;6.36
73685;BMP280;61985;51.070;14.064;2023-04-15T04:59:04;97370.91;;;6.35
73685;BMP280;61985;51.070;14.064;2023-04-15T05:01:31;97378.19;;;6.35
73685;BMP280;61985;51.070;14.064;2023-04-15T05:03:56;97388.06;;;6.38
73685;BMP280;61985;51.070;14.064;2023-04-15T05:06:21;97399.19;;;6.36
73685;BMP280;61985;51.070;14.064;2023-04-15T05:08:47;97398.50;;;6.32
73685;BMP280;61985;51.070;14.064;2023-04-15T05:11:12;97398.81;;;6.34
73685;BMP280;61985;51.070;14.064;2023-04-15T05:13:37;97396.16;;;6.34
73685;BMP280;61985;51.070;14.064;2023-04-15T05:16:04;97394.97;;;6.35
73685;BMP280;61985;51.070;14.064;2023-04-15T05:18:29;97392.31;;;6.35
73685;BMP280;61985;51.070;14.064;2023-04-15T05:20:55;97393.41;;;6.38
73685;BMP280;61985;51.070;14.064;2023-04-15T05:23:20;97390.28;;;6.39
73685;BMP280;61985;51.070;14.064;2023-04-15T05:25:46;97381.59;;;6.35
73685;BMP280;61985;51.070;14.064;2023-04-15T05:28:11;97382.69;;;6.38
73685;BMP280;61985;51.070;14.064;2023-04-15T05:30:36;97388.06;;;6.38
73685;BMP280;61985;51.070;14.064;2023-04-15T05:33:02;97387.59;;;6.39
73685;BMP280;61985;51.070;14.064;2023-04-15T05:35:28;97397.25;;;6.37
73685;BMP280;61985;51.070;14.064;2023-04-15T05:37:53;97400.22;;;6.39
73685;BMP280;61985;51.070;14.064;2023-04-15T05:40:18;97410.19;;;6.38
73685;BMP280;61985;51.070;14.064;2023-04-15T05:42:44;97409.44;;;6.38
73685;BMP280;61985;51.070;14.064;2023-04-15T05:45:10;97413.84;;;6.44
73685;BMP280;61985;51.070;14.064;2023-04-15T05:47:35;97409.75;;;6.40
73685;BMP280;61985;51.070;14.064;2023-04-15T05:50:02;97414.25;;;6.43
73685;BMP280;61985;51.070;14.064;2023-04-15T05:52:27;97418.44;;;6.44
73685;BMP280;61985;51.070;14.064;2023-04-15T05:54:52;97421.44;;;6.46
73685;BMP280;61985;51.070;14.064;2023-04-15T05:57:18;97422.97;;;6.47
73685;BMP280;61985;51.070;14.064;2023-04-15T05:59:43;97426.06;;;6.45
73685;BMP280;61985;51.070;14.064;2023-04-15T06:02:09;97438.19;;;6.50
73685;BMP280;61985;51.070;14.064;2023-04-15T06:04:34;97443.19;;;6.48
73685;BMP280;61985;51.070;14.064;2023-04-15T06:07:01;97441.28;;;6.49
73685;BMP280;61985;51.070;14.064;2023-04-15T06:09:26;97449.84;;;6.56
73685;BMP280;61985;51.070;14.064;2023-04-15T06:11:53;97440.31;;;6.55
73685;BMP280;61985;51.070;14.064;2023-04-15T06:14:18;97439.66;;;6.51
73685;BMP280;61985;51.070;14.064;2023-04-15T06:16:43;97444.81;;;6.58
73685;BMP280;61985;51.070;14.064;2023-04-15T06:19:09;97448.34;;;6.55
73685;BMP280;61985;51.070;14.064;2023-04-15T06:21:34;97457.22;;;6.52
73685;BMP280;61985;51.070;14.064;2023-04-15T06:24:00;97442.25;;;6.55
73685;BMP280;61985;51.070;14.064;2023-04-15T06:26:26;97452.00;;;6.61
73685;BMP280;61985;51.070;14.064;2023-04-15T06:28:51;97448.50;;;6.64
73685;BMP280;61985;51.070;14.064;2023-04-15T06:31:16;97452.97;;;6.68
73685;BMP280;61985;51.070;14.064;2023-04-15T06:33:42;97451.03;;;6.68
73685;BMP280;61985;51.070;14.064;2023-04-15T06:36:07;97457.50;;;6.71
73685;BMP280;61985;51.070;14.064;2023-04-15T06:38:32;97455.22;;;6.69
73685;BMP280;61985;51.070;14.064;2023-04-15T06:40:57;97459.31;;;6.74
73685;BMP280;61985;51.070;14.064;2023-04-15T06:43:23;97458.69;;;6.82
73685;BMP280;61985;51.070;14.064;2023-04-15T06:45:48;97454.16;;;6.79
73685;BMP280;61985;51.070;14.064;2023-04-15T06:48:14;97457.94;;;6.82
73685;BMP280;61985;51.070;14.064;2023-04-15T06:50:39;97460.75;;;6.91
73685;BMP280;61985;51.070;14.064;2023-04-15T06:53:05;97464.59;;;6.90
73685;BMP280;61985;51.070;14.064;2023-04-15T06:55:30;97479.81;;;6.93
73685;BMP280;61985;51.070;14.064;2023-04-15T06:57:56;97474.38;;;6.97
73685;BMP280;61985;51.070;14.064;2023-04-15T07:00:21;97475.84;;;6.98
73685;BMP280;61985;51.070;14.064;2023-04-15T07:02:47;97484.66;;;6.98
73685;BMP280;61985;51.070;14.064;2023-04-15T07:05:16;97482.72;;;6.99
73685;BMP280;61985;51.070;14.064;2023-04-15T07:07:41;97491.09;;;7.01
73685;BMP280;61985;51.070;14.064;2023-04-15T07:10:07;97501.06;;;7.00
73685;BMP280;61985;51.070;14.064;2023-04-15T07:12:33;97492.34;;;6.96
73685;BMP280;61985;51.070;14.064;2023-04-15T07:14:59;97503.41;;;6.98
73685;BMP280;61985;51.070;14.064;2023-04-15T07:17:24;97502.22;;;6.99
73685;BMP280;61985;51.070;14.064;2023-04-15T07:19:49;97503.84;;;7.10
73685;BMP280;61985;51.070;14.064;2023-04-15T07:22:15;97489.50;;;7.16
73685;BMP280;61985;51.070;14.064;2023-04-15T07:24:40;97500.34;;;7.13
73685;BMP280;61985;51.070;14.064;2023-04-15T07:27:06;97491.56;;;7.12
73685;BMP280;61985;51.070;14.064;2023-04-15T07:29:32;97503.53;;;7.20
73685;BMP280;61985;51.070;14.064;2023-04-15T07:31:57;97500.88;;;7.20
73685;BMP280;61985;51.070;14.064;2023-04-15T07:34:23;97514.59;;;7.22
73685;BMP280;61985;51.070;14.064;2023-04-15T07:36:48;97515.19;;;7.01
73685;BMP280;61985;51.070;14.064;2023-04-15T07:39:16;97514.88;;;6.99
73685;BMP280;61985;51.070;14.064;2023-04-15T07:41:41;97527.00;;;6.74
73685;BMP280;61985;51.070;14.064;2023-04-15T07:44:06;97517.72;;;6.62
73685;BMP280;61985;51.070;14.064;2023-04-15T07:46:32;97528.03;;;6.64
73685;BMP280;61985;51.070;14.064;2023-04-15T07:48:57;97536.00;;;6.51
73685;BMP280;61985;51.070;14.064;2023-04-15T07:51:23;97531.94;;;6.59
73685;BMP280;61985;51.070;14.064;2023-04-15T07:53:49;97537.50;;;6.52
73685;BMP280;61985;51.070;14.064;2023-04-15T07:56:14;97536.47;;;6.62
73685;BMP280;61985;51.070;14.064;2023-04-15T07:58:40;97541.03;;;6.49
73685;BMP280;61985;51.070;14.064;2023-04-15T08:01:05;97544.53;;;6.46
73685;BMP280;61985;51.070;14.064;2023-04-15T08:03:31;97549.19;;;6.42
73685;BMP280;61985;51.070;14.064;2023-04-15T08:05:57;97558.91;;;6.52
73685;BMP280;61985;51.070;14.064;2023-04-15T08:08:22;97559.91;;;6.42
73685;BMP280;61985;51.070;14.064;2023-04-15T08:10:48;97561.41;;;6.43
73685;BMP280;61985;51.070;14.064;2023-04-15T08:13:14;97558.66;;;6.47
73685;BMP280;61985;51.070;14.064;2023-04-15T08:15:40;97565.09;;;6.49
73685;BMP280;61985;51.070;14.064;2023-04-15T08:18:05;97558.19;;;6.52
73685;BMP280;61985;51.070;14.064;2023-04-15T08:20:31;97556.81;;;6.43
73685;BMP280;61985;51.070;14.064;2023-04-15T08:22:56;97564.06;;;6.59
73685;BMP280;61985;51.070;14.064;2023-04-15T08:25:22;97565.72;;;6.70
73685;BMP280;61985;51.070;14.064;2023-04-15T08:27:47;97567.88;;;6.75
73685;BMP280;61985;51.070;14.064;2023-04-15T08:30:13;97571.75;;;6.74
73685;BMP280;61985;51.070;14.064;2023-04-15T08:32:44;97572.19;;;6.56
73685;BMP280;61985;51.070;14.064;2023-04-15T08:35:11;97566.41;;;6.57
73685;BMP280;61985;51.070;14.064;2023-04-15T08:37:36;97565.00;;;6.53
73685;BMP280;61985;51.070;14.064;2023-04-15T08:40:02;97571.03;;;6.57
73685;BMP280;61985;51.070;14.064;2023-04-15T08:42:30;97581.72;;;6.57
73685;BMP280;61985;51.070;14.064;2023-04-15T08:44:58;97586.41;;;6.53
73685;BMP280;61985;51.070;14.064;2023-04-15T08:47:28;97595.25;;;6.66
73685;BMP280;61985;51.070;14.064;2023-04-15T08:49:54;97593.03;;;6.64
73685;BMP280;61985;51.070;14.064;2023-04-15T08:52:19;97595.03;;;6.77
73685;BMP280;61985;51.070;14.064;2023-04-15T08:54:46;97592.38;;;6.90
73685;BMP280;61985;51.070;14.064;2023-04-15T08:57:12;97591.97;;;6.91
73685;BMP280;61985;51.070;14.064;2023-04-15T08:59:38;97595.63;;;6.97
73685;BMP280;61985;51.070;14.064;2023-04-15T09:02:04;97599.97;;;7.08
73685;BMP280;61985;51.070;14.064;2023-04-15T09:04:30;97606.34;;;7.27
73685;BMP280;61985;51.070;14.064;2023-04-15T09:06:55;97603.84;;;7.19
73685;BMP280;61985;51.070;14.064;2023-04-15T09:09:21;97603.25;;;6.99
73685;BMP280;61985;51.070;14.064;2023-04-15T09:11:46;97604.03;;;6.83
73685;BMP280;61985;51.070;14.064;2023-04-15T09:14:14;97604.50;;;6.94
73685;BMP280;61985;51.070;14.064;2023-04-15T09:16:58;97613.75;;;7.06
73685;BMP280;61985;51.070;14.064;2023-04-15T09:19:25;97615.94;;;6.95
73685;BMP280;61985;51.070;14.064;2023-04-15T09:21:56;97619.91;;;6.90
73685;BMP280;61985;51.070;14.064;2023-04-15T09:24:23;97620.25;;;6.92
73685;BMP280;61985;51.070;14.064;2023-04-15T09:26:52;97631.88;;;6.86
73685;BMP280;61985;51.070;14.064;2023-04-15T09:29:18;97630.13;;;6.79
73685;BMP280;61985;51.070;14.064;2023-04-15T09:31:44;97633.13;;;6.81
73685;BMP280;61985;51.070;14.064;2023-04-15T09:34:09;97628.63;;;6.78
73685;BMP280;61985;51.070;14.064;2023-04-15T09:39:16;97636.53;;;6.98
73685;BMP280;61985;51.070;14.064;2023-04-15T09:41:41;97649.03;;;7.05
73685;BMP280;61985;51.070;14.064;2023-04-15T09:44:24;97655.91;;;6.89
73685;BMP280;61985;51.070;14.064;2023-04-15T09:46:50;97654.88;;;6.99
73685;BMP280;61985;51.070;14.064;2023-04-15T09:49:15;97662.06;;;7.02
73685;BMP280;61985;51.070;14.064;2023-04-15T09:51:42;97656.47;;;6.97
73685;BMP280;61985;51.070;14.064;2023-04-15T09:54:08;97656.19;;;7.08
73685;BMP280;61985;51.070;14.064;2023-04-15T09:56:34;97663.13;;;7.05
73685;BMP280;61985;51.070;14.064;2023-04-15T09:59:02;97667.66;;;7.08
73685;BMP280;61985;51.070;14.064;2023-04-15T10:01:27;97661.97;;;7.06
73685;BMP280;61985;51.070;14.064;2023-04-15T10:03:55;97664.06;;;7.15
73685;BMP280;61985;51.070;14.064;2023-04-15T10:06:22;97667.56;;;7.12
73685;BMP280;61985;51.070;14.064;2023-04-15T10:08:49;97666.53;;;7.22
73685;BMP280;61985;51.070;14.064;2023-04-15T10:11:17;97665.84;;;7.34
73685;BMP280;61985;51.070;14.064;2023-04-15T10:13:43;97660.38;;;7.38
73685;BMP280;61985;51.070;14.064;2023-04-15T10:16:14;97668.13;;;7.49
73685;BMP280;61985;51.070;14.064;2023-04-15T10:18:43;97673.63;;;7.58
73685;BMP280;61985;51.070;14.064;2023-04-15T10:21:08;97670.34;;;7.67
73685;BMP280;61985;51.070;14.064;2023-04-15T10:23:34;97665.53;;;7.62
73685;BMP280;61985;51.070;14.064;2023-04-15T10:26:00;97675.72;;;7.79
73685;BMP280;61985;51.070;14.064;2023-04-15T10:28:26;97674.44;;;7.84
73685;BMP280;61985;51.070;14.064;2023-04-15T10:30:52;97683.28;;;7.97
73685;BMP280;61985;51.070;14.064;2023-04-15T10:33:20;97682.41;;;8.13
73685;BMP280;61985;51.070;14.064;2023-04-15T10:35:47;97672.88;;;8.25
73685;BMP280;61985;51.070;14.064;2023-04-15T10:41:21;97672.97;;;8.47
73685;BMP280;61985;51.070;14.064;2023-04-15T10:44:03;97689.91;;;8.70
73685;BMP280;61985;51.070;14.064;2023-04-15T10:46:50;97687.47;;;8.50
73685;BMP280;61985;51.070;14.064;2023-04-15T10:49:23;97683.69;;;8.47
73685;BMP280;61985;51.070;14.064;2023-04-15T10:51:56;97685.06;;;8.65
73685;BMP280;61985;51.070;14.064;2023-04-15T10:56:52;97689.75;;;8.86
73685;BMP280;61985;51.070;14.064;2023-04-15T11:02:57;97692.13;;;8.84
73685;BMP280;61985;51.070;14.064;2023-04-15T11:05:51;97696.94;;;8.89
73685;BMP280;61985;51.070;14.064;2023-04-15T11:08:17;97695.03;;;8.77
73685;BMP280;61985;51.070;14.064;2023-04-15T11:15:37;97715.03;;;8.76
73685;BMP280;61985;51.070;14.064;2023-04-15T11:20:35;97717.09;;;8.59
73685;BMP280;61985;51.070;14.064;2023-04-15T11:23:01;97714.50;;;8.68
73685;BMP280;61985;51.070;14.064;2023-04-15T11:25:28;97720.84;;;8.62
73685;BMP280;61985;51.070;14.064;2023-04-15T11:27:54;97723.53;;;8.62
73685;BMP280;61985;51.070;14.064;2023-04-15T11:30:25;97721.66;;;8.84
73685;BMP280;61985;51.070;14.064;2023-04-15T11:32:54;97724.66;;;8.86
73685;BMP280;61985;51.070;14.064;2023-04-15T11:35:19;97721.31;;;8.95
73685;BMP280;61985;51.070;14.064;2023-04-15T11:37:47;97731.56;;;8.87
73685;BMP280;61985;51.070;14.064;2023-04-15T11:40:21;97729.53;;;8.79
73685;BMP280;61985;51.070;14.064;2023-04-15T11:43:06;97739.53;;;8.78
73685;BMP280;61985;51.070;14.064;2023-04-15T11:45:31;97745.63;;;8.79
73685;BMP280;61985;51.070;14.064;2023-04-15T11:48:05;97743.94;;;8.72
73685;BMP280;61985;51.070;14.064;2023-04-15T11:50:31;97751.00;;;8.79
73685;BMP280;61985;51.070;14.064;2023-04-15T11:53:00;97744.88;;;8.78
73685;BMP280;61985;51.070;14.064;2023-04-15T11:55:26;97753.50;;;8.73
73685;BMP280;61985;51.070;14.064;2023-04-15T11:58:14;97751.69;;;8.70
73685;BMP280;61985;51.070;14.064;2023-04-15T12:00:49;97758.44;;;8.74
73685;BMP280;61985;51.070;14.064;2023-04-15T12:03:25;97755.84;;;8.71
73685;BMP280;61985;51.070;14.064;2023-04-15T12:06:20;97762.94;;;8.78
73685;BMP280;61985;51.070;14.064;2023-04-15T12:13:53;97759.81;;;8.66
73685;BMP280;61985;51.070;14.064;2023-04-15T12:16:19;97758.53;;;8.71
73685;BMP280;61985;51.070;14.064;2023-04-15T12:18:55;97765.00;;;8.61
73685;BMP280;61985;51.070;14.064;2023-04-15T12:21:23;97762.94;;;8.65
73685;BMP280;61985;51.070;14.064;2023-04-15T12:23:53;97770.56;;;8.53
73685;BMP280;61985;51.070;14.064;2023-04-15T12:26:26;97780.25;;;8.64
73685;BMP280;61985;51.070;14.064;2023-04-15T12:28:54;97776.47;;;8.74
73685;BMP280;61985;51.070;14.064;2023-04-15T12:31:20;97771.09;;;8.87
73685;BMP280;61985;51.070;14.064;2023-04-15T12:33:47;97780.22;;;8.89
73685;BMP280;61985;51.070;14.064;2023-04-15T12:36:12;97781.59;;;9.07
73685;BMP280;61985;51.070;14.064;2023-04-15T12:38:38;97787.56;;;9.24
73685;BMP280;61985;51.070;14.064;2023-04-15T12:41:03;97791.53;;;9.32
73685;BMP280;61985;51.070;14.064;2023-04-15T12:43:28;97790.66;;;9.35
73685;BMP280;61985;51.070;14.064;2023-04-15T12:45:54;97797.00;;;9.41
73685;BMP280;61985;51.070;14.064;2023-04-15T12:48:19;97794.31;;;9.63
73685;BMP280;61985;51.070;14.064;2023-04-15T12:50:44;97794.28;;;9.76
73685;BMP280;61985;51.070;14.064;2023-04-15T12:53:10;97796.13;;;9.88
73685;BMP280;61985;51.070;14.064;2023-04-15T12:55:35;97803.25;;;9.95
73685;BMP280;61985;51.070;14.064;2023-04-15T12:58:00;97805.66;;;10.02
73685;BMP280;61985;51.070;14.064;2023-04-15T13:00:26;97806.16;;;10.10
73685;BMP280;61985;51.070;14.064;2023-04-15T13:02:52;97813.34;;;10.13
73685;BMP280;61985;51.070;14.064;2023-04-15T13:05:18;97814.13;;;10.14
73685;BMP280;61985;51.070;14.064;2023-04-15T13:07:43;97810.84;;;10.19
73685;BMP280;61985;51.070;14.064;2023-04-15T13:10:09;97811.03;;;10.02
73685;BMP280;61985;51.070;14.064;2023-04-15T13:12:34;97812.25;;;10.01
73685;BMP280;61985;51.070;14.064;2023-04-15T13:15:02;97808.16;;;10.19
73685;BMP280;61985;51.070;14.064;2023-04-15T13:17:28;97817.16;;;10.25
73685;BMP280;61985;51.070;14.064;2023-04-15T13:19:53;97820.97;;;10.37
73685;BMP280;61985;51.070;14.064;2023-04-15T13:22:19;97816.81;;;10.45
73685;BMP280;61985;51.070;14.064;2023-04-15T13:24:44;97815.06;;;10.60
73685;BMP280;61985;51.070;14.064;2023-04-15T13:27:09;97815.50;;;10.59
73685;BMP280;61985;51.070;14.064;2023-04-15T13:29:35;97814.97;;;10.82
73685;BMP280;61985;51.070;14.064;2023-04-15T13:32:00;97820.72;;;11.03
73685;BMP280;61985;51.070;14.064;2023-04-15T13:34:25;97824.63;;;11.02
73685;BMP280;61985;51.070;14.064;2023-04-15T13:36:51;97819.63;;;10.82
73685;BMP280;61985;51.070;14.064;2023-04-15T13:39:16;97825.97;;;10.97
73685;BMP280;61985;51.070;14.064;2023-04-15T13:41:41;97831.09;;;10.73
73685;BMP280;61985;51.070;14.064;2023-04-15T13:44:07;97828.19;;;10.49
73685;BMP280;61985;51.070;14.064;2023-04-15T13:46:32;97831.59;;;10.40
73685;BMP280;61985;51.070;14.064;2023-04-15T13:48:57;97832.59;;;10.34
73685;BMP280;61985;51.070;14.064;2023-04-15T13:51:23;97833.91;;;10.20
73685;BMP280;61985;51.070;14.064;2023-04-15T13:53:48;97826.75;;;10.26
73685;BMP280;61985;51.070;14.064;2023-04-15T13:56:13;97834.75;;;10.39
73685;BMP280;61985;51.070;14.064;2023-04-15T13:58:39;97842.63;;;10.64
73685;BMP280;61985;51.070;14.064;2023-04-15T14:01:05;97842.78;;;10.70
73685;BMP280;61985;51.070;14.064;2023-04-15T14:03:30;97835.34;;;10.83
73685;BMP280;61985;51.070;14.064;2023-04-15T14:05:56;97840.59;;;10.87
73685;BMP280;61985;51.070;14.064;2023-04-15T14:08:23;97841.22;;;10.91
73685;BMP280;61985;51.070;14.064;2023-04-15T14:10:49;97853.09;;;11.12
73685;BMP280;61985;51.070;14.064;2023-04-15T14:13:17;97852.31;;;11.02
73685;BMP280;61985;51.070;14.064;2023-04-15T14:15:43;97862.50;;;11.07
73685;BMP280;61985;51.070;14.064;2023-04-15T14:18:09;97861.13;;;10.94
73685;BMP280;61985;51.070;14.064;2023-04-15T14:20:34;97855.63;;;10.97
73685;BMP280;61985;51.070;14.064;2023-04-15T14:22:59;97862.59;;;10.85
73685;BMP280;61985;51.070;14.064;2023-04-15T14:25:25;97868.78;;;10.95
73685;BMP280;61985;51.070;14.064;2023-04-15T14:27:51;97873.56;;;10.91